sensor_id;sensor_type;location;lat;lon;timestamp;P1;P2;P0
79141;PMS5003;68550;-26.480;29.234;2024-01-15T00:00:54;24;24;
79141;PMS5003;68550;-26.480;29.234;2024-01-15T00:03:19;26;25;
79141;PMS5003;68550;-26.480;29.234;2024-01-15T00:05:44;24;23;
79141;PMS5003;68550;-26.480;29.234;2024-01-15T00:08:10;23;23;
79141;PMS5003;68550;-26.480;29.234;2024-01-15T00:10:35;25;25;
79141;PMS5003;68550;-26.480;29.234;2024-01-15T00:13:00;26;25;
79141;PMS5003;68550;-26.480;29.234;2024-01-15T00:15:25;25;25;
79141;PMS5003;68550;-26.480;29.234;2024-01-15T00:17:51;25;24;
79141;PMS5003;68550;-26.480;29.234;2024-01-15T00:20:16;24;24;
79141;PMS5003;68550;-26.480;29.234;2024-01-15T00:22:41;24;24;
79141;PMS5003;68550;-26.480;29.234;2024-01-15T00:25:08;25;24;
79141;PMS5003;68550;-26.480;29.234;2024-01-15T00:27:32;25;25;
79141;PMS5003;68550;-26.480;29.234;2024-01-15T00:29:57;24;24;
79141;PMS5003;68550;-26.480;29.234;2024-01-15T00:32:22;26;25;
79141;PMS5003;68550;-26.480;29.234;2024-01-15T00:34:48;24;24;
79141;PMS5003;68550;-26.480;29.234;2024-01-15T00:37:15;24;24;
79141;PMS5003;68550;-26.480;29.234;2024-01-15T00:39:38;24;24;
79141;PMS5003;68550;-26.480;29.234;2024-01-15T00:42:03;26;26;
79141;PMS5003;68550;-26.480;29.234;2024-01-15T00:44:29;24;23;
79141;PMS5003;68550;-26.480;29.234;2024-01-15T00:46:54;22;22;
79141;PMS5003;68550;-26.480;29.234;2024-01-15T00:49:19;22;22;
79141;PMS5003;68550;-26.480;29.234;2024-01-15T00:51:45;22;22;
79141;PMS5003;68550;-26.480;29.234;2024-01-15T00:54:09;28;27;
79141;PMS5003;68550;-26.480;29.234;2024-01-15T00:56:35;26;26;
79141;PMS5003;68550;-26.480;29.234;2024-01-15T00:59:00;26;26;
79141;PMS5003;68550;-26.480;29.234;2024-01-15T01:01:25;26;26;
79141;PMS5003;68550;-26.480;29.234;2024-01-15T01:03:53;24;24;
79141;PMS5003;68550;-26.480;29.234;2024-01-15T01:06:16;23;23;
79141;PMS5003;68550;-26.480;29.234;2024-01-15T01:08:41;26;24;
79141;PMS5003;68550;-26.480;29.234;2024-01-15T01:11:07;24;23;
79141;PMS5003;68550;-26.480;29.234;2024-01-15T01:13:33;24;24;
79141;PMS5003;68550;-26.480;29.234;2024-01-15T01:15:58;28;28;
79141;PMS5003;68550;-26.480;29.234;2024-01-15T01:18:24;23;23;
79141;PMS5003;68550;-26.480;29.234;2024-01-15T01:20:49;27;27;
79141;PMS5003;68550;-26.480;29.234;2024-01-15T01:23:14;28;28;
79141;PMS5003;68550;-26.480;29.234;2024-01-15T01:25:40;26;26;
79141;PMS5003;68550;-26.480;29.234;2024-01-15T01:28:07;24;24;
79141;PMS5003;68550;-26.480;29.234;2024-01-15T01:30:30;27;27;
79141;PMS5003;68550;-26.480;29.234;2024-01-15T01:32:56;26;26;
79141;PMS5003;68550;-26.480;29.234;2024-01-15T01:35:21;24;23;
79141;PMS5003;68550;-26.480;29.234;2024-01-15T01:37:46;28;28;
79141;PMS5003;68550;-26.480;29.234;2024-01-15T01:40:13;25;25;
79141;PMS5003;68550;-26.480;29.234;2024-01-15T01:42:36;22;22;
79141;PMS5003;68550;-26.480;29.234;2024-01-15T01:45:01;28;28;
79141;PMS5003;68550;-26.480;29.234;2024-01-15T01:47:28;24;24;
79141;PMS5003;68550;-26.480;29.234;2024-01-15T01:49:52;28;28;
79141;PMS5003;68550;-26.480;29.234;2024-01-15T01:52:18;29;29;
79141;PMS5003;68550;-26.480;29.234;2024-01-15T01:54:42;23;23;
79141;PMS5003;68550;-26.480;29.234;2024-01-15T01:57:08;28;28;
79141;PMS5003;68550;-26.480;29.234;2024-01-15T01:59:33;23;23;
79141;PMS5003;68550;-26.480;29.234;2024-01-15T02:01:58;23;23;
79141;PMS5003;68550;-26.480;29.234;2024-01-15T02:04:24;24;24;
79141;PMS5003;68550;-26.480;29.234;2024-01-15T02:09:14;25;25;
79141;PMS5003;68550;-26.480;29.234;2024-01-15T02:11:40;30;30;
79141;PMS5003;68550;-26.480;29.234;2024-01-15T02:14:05;27;27;
79141;PMS5003;68550;-26.480;29.234;2024-01-15T02:16:31;27;27;
79141;PMS5003;68550;-26.480;29.234;2024-01-15T02:18:56;30;30;
79141;PMS5003;68550;-26.480;29.234;2024-01-15T02:21:23;24;24;
79141;PMS5003;68550;-26.480;29.234;2024-01-15T02:23:47;30;30;
79141;PMS5003;68550;-26.480;29.234;2024-01-15T02:26:12;25;25;
79141;PMS5003;68550;-26.480;29.234;2024-01-15T02:28:38;27;27;
79141;PMS5003;68550;-26.480;29.234;2024-01-15T02:31:03;29;29;
79141;PMS5003;68550;-26.480;29.234;2024-01-15T02:33:29;28;27;
79141;PMS5003;68550;-26.480;29.234;2024-01-15T02:35:54;26;26;
79141;PMS5003;68550;-26.480;29.234;2024-01-15T02:38:19;27;27;
79141;PMS5003;68550;-26.480;29.234;2024-01-15T02:40:45;28;28;
79141;PMS5003;68550;-26.480;29.234;2024-01-15T02:43:10;29;29;
79141;PMS5003;68550;-26.480;29.234;2024-01-15T02:45:38;29;28;
79141;PMS5003;68550;-26.480;29.234;2024-01-15T02:48:01;29;29;
79141;PMS5003;68550;-26.480;29.234;2024-01-15T02:50:26;27;27;
79141;PMS5003;68550;-26.480;29.234;2024-01-15T02:52:52;31;31;
79141;PMS5003;68550;-26.480;29.234;2024-01-15T02:55:17;29;29;
79141;PMS5003;68550;-26.480;29.234;2024-01-15T02:57:43;28;28;
79141;PMS5003;68550;-26.480;29.234;2024-01-15T03:00:09;29;28;
79141;PMS5003;68550;-26.480;29.234;2024-01-15T03:04:28;23;23;
79141;PMS5003;68550;-26.480;29.234;2024-01-15T03:06:53;29;29;
79141;PMS5003;68550;-26.480;29.234;2024-01-15T03:09:19;27;27;
79141;PMS5003;68550;-26.480;29.234;2024-01-15T03:11:44;30;30;
79141;PMS5003;68550;-26.480;29.234;2024-01-15T03:14:09;28;28;
79141;PMS5003;68550;-26.480;29.234;2024-01-15T03:19:00;27;27;
79141;PMS5003;68550;-26.480;29.234;2024-01-15T03:21:25;27;26;
79141;PMS5003;68550;-26.480;29.234;2024-01-15T03:31:12;32;32;
79141;PMS5003;68550;-26.480;29.234;2024-01-15T03:33:34;33;32;
79141;PMS5003;68550;-26.480;29.234;2024-01-15T03:35:58;28;28;
79141;PMS5003;68550;-26.480;29.234;2024-01-15T03:38:23;32;32;
79141;PMS5003;68550;-26.480;29.234;2024-01-15T03:40:49;30;30;
79141;PMS5003;68550;-26.480;29.234;2024-01-15T03:43:14;32;32;
79141;PMS5003;68550;-26.480;29.234;2024-01-15T03:45:40;29;29;
79141;PMS5003;68550;-26.480;29.234;2024-01-15T03:48:06;27;27;
79141;PMS5003;68550;-26.480;29.234;2024-01-15T03:50:31;27;26;
79141;PMS5003;68550;-26.480;29.234;2024-01-15T03:52:56;26;25;
79141;PMS5003;68550;-26.480;29.234;2024-01-15T03:55:22;28;28;
79141;PMS5003;68550;-26.480;29.234;2024-01-15T03:57:53;29;28;
79141;PMS5003;68550;-26.480;29.234;2024-01-15T04:00:13;35;34;
79141;PMS5003;68550;-26.480;29.234;2024-01-15T04:05:03;31;30;
79141;PMS5003;68550;-26.480;29.234;2024-01-15T04:07:31;28;28;
79141;PMS5003;68550;-26.480;29.234;2024-01-15T04:09:54;34;34;
79141;PMS5003;68550;-26.480;29.234;2024-01-15T04:14:54;29;29;
79141;PMS5003;68550;-26.480;29.234;2024-01-15T04:17:09;29;29;
79141;PMS5003;68550;-26.480;29.234;2024-01-15T04:19:35;39;38;
79141;PMS5003;68550;-26.480;29.234;2024-01-15T04:22:00;31;31;
79141;PMS5003;68550;-26.480;29.234;2024-01-15T04:24:25;31;31;
79141;PMS5003;68550;-26.480;29.234;2024-01-15T04:26:51;31;31;
79141;PMS5003;68550;-26.480;29.234;2024-01-15T04:29:25;38;35;
79141;PMS5003;68550;-26.480;29.234;2024-01-15T04:34:08;29;28;
79141;PMS5003;68550;-26.480;29.234;2024-01-15T04:36:38;29;29;
79141;PMS5003;68550;-26.480;29.234;2024-01-15T04:43:49;31;31;
79141;PMS5003;68550;-26.480;29.234;2024-01-15T04:46:14;32;30;
79141;PMS5003;68550;-26.480;29.234;2024-01-15T04:48:40;30;28;
79141;PMS5003;68550;-26.480;29.234;2024-01-15T04:53:31;31;30;
79141;PMS5003;68550;-26.480;29.234;2024-01-15T04:58:22;33;33;
79141;PMS5003;68550;-26.480;29.234;2024-01-15T05:05:33;34;33;
79141;PMS5003;68550;-26.480;29.234;2024-01-15T05:07:59;35;34;
79141;PMS5003;68550;-26.480;29.234;2024-01-15T05:10:26;29;29;
79141;PMS5003;68550;-26.480;29.234;2024-01-15T05:12:49;31;30;
79141;PMS5003;68550;-26.480;29.234;2024-01-15T05:15:14;34;33;
79141;PMS5003;68550;-26.480;29.234;2024-01-15T05:17:40;29;28;
79141;PMS5003;68550;-26.480;29.234;2024-01-15T05:20:05;32;32;
79141;PMS5003;68550;-26.480;29.234;2024-01-15T05:22:33;30;30;
79141;PMS5003;68550;-26.480;29.234;2024-01-15T05:24:56;31;31;
79141;PMS5003;68550;-26.480;29.234;2024-01-15T05:27:21;33;33;
79141;PMS5003;68550;-26.480;29.234;2024-01-15T05:29:47;33;32;
79141;PMS5003;68550;-26.480;29.234;2024-01-15T05:32:12;32;32;
79141;PMS5003;68550;-26.480;29.234;2024-01-15T05:34:38;32;32;
79141;PMS5003;68550;-26.480;29.234;2024-01-15T05:37:05;30;30;
79141;PMS5003;68550;-26.480;29.234;2024-01-15T05:39:29;29;29;
79141;PMS5003;68550;-26.480;29.234;2024-01-15T05:41:54;31;30;
79141;PMS5003;68550;-26.480;29.234;2024-01-15T05:44:20;30;30;
79141;PMS5003;68550;-26.480;29.234;2024-01-15T05:46:44;31;30;
79141;PMS5003;68550;-26.480;29.234;2024-01-15T05:49:12;30;28;
79141;PMS5003;68550;-26.480;29.234;2024-01-15T05:51:36;28;28;
79141;PMS5003;68550;-26.480;29.234;2024-01-15T05:54:01;27;27;
79141;PMS5003;68550;-26.480;29.234;2024-01-15T05:56:26;30;29;
79141;PMS5003;68550;-26.480;29.234;2024-01-15T05:58:52;29;29;
79141;PMS5003;68550;-26.480;29.234;2024-01-15T06:01:19;27;27;
79141;PMS5003;68550;-26.480;29.234;2024-01-15T06:03:42;30;30;
79141;PMS5003;68550;-26.480;29.234;2024-01-15T06:06:08;29;28;
79141;PMS5003;68550;-26.480;29.234;2024-01-15T06:08:33;28;28;
79141;PMS5003;68550;-26.480;29.234;2024-01-15T06:10:58;31;30;
79141;PMS5003;68550;-26.480;29.234;2024-01-15T06:13:25;30;29;
79141;PMS5003;68550;-26.480;29.234;2024-01-15T06:15:49;26;26;
79141;PMS5003;68550;-26.480;29.234;2024-01-15T06:18:14;26;26;
79141;PMS5003;68550;-26.480;29.234;2024-01-15T06:20:39;25;24;
79141;PMS5003;68550;-26.480;29.234;2024-01-15T06:23:04;27;27;
79141;PMS5003;68550;-26.480;29.234;2024-01-15T06:25:29;24;23;
79141;PMS5003;68550;-26.480;29.234;2024-01-15T06:27:56;24;24;
79141;PMS5003;68550;-26.480;29.234;2024-01-15T06:30:20;25;25;
79141;PMS5003;68550;-26.480;29.234;2024-01-15T06:32:45;23;23;
79141;PMS5003;68550;-26.480;29.234;2024-01-15T06:35:10;20;20;
79141;PMS5003;68550;-26.480;29.234;2024-01-15T06:37:36;22;22;
79141;PMS5003;68550;-26.480;29.234;2024-01-15T06:40:03;24;24;
79141;PMS5003;68550;-26.480;29.234;2024-01-15T06:42:27;28;28;
79141;PMS5003;68550;-26.480;29.234;2024-01-15T06:44:52;20;20;
79141;PMS5003;68550;-26.480;29.234;2024-01-15T06:47:17;20;20;
79141;PMS5003;68550;-26.480;29.234;2024-01-15T06:49:42;23;22;
79141;PMS5003;68550;-26.480;29.234;2024-01-15T06:52:08;22;21;
79141;PMS5003;68550;-26.480;29.234;2024-01-15T06:54:32;21;21;
79141;PMS5003;68550;-26.480;29.234;2024-01-15T06:56:57;23;23;
79141;PMS5003;68550;-26.480;29.234;2024-01-15T06:59:23;21;21;
79141;PMS5003;68550;-26.480;29.234;2024-01-15T07:01:48;19;19;
79141;PMS5003;68550;-26.480;29.234;2024-01-15T07:04:16;26;25;
79141;PMS5003;68550;-26.480;29.234;2024-01-15T07:06:39;23;23;
79141;PMS5003;68550;-26.480;29.234;2024-01-15T07:09:04;22;22;
79141;PMS5003;68550;-26.480;29.234;2024-01-15T07:11:30;22;21;
79141;PMS5003;68550;-26.480;29.234;2024-01-15T07:13:55;20;20;
79141;PMS5003;68550;-26.480;29.234;2024-01-15T07:16:21;17;17;
79141;PMS5003;68550;-26.480;29.234;2024-01-15T07:18:46;21;21;
79141;PMS5003;68550;-26.480;29.234;2024-01-15T07:21:11;18;18;
79141;PMS5003;68550;-26.480;29.234;2024-01-15T07:23:37;19;19;
79141;PMS5003;68550;-26.480;29.234;2024-01-15T07:26:02;18;18;
79141;PMS5003;68550;-26.480;29.234;2024-01-15T07:28:29;19;19;
79141;PMS5003;68550;-26.480;29.234;2024-01-15T07:30:53;20;19;
79141;PMS5003;68550;-26.480;29.234;2024-01-15T07:33:18;17;17;
79141;PMS5003;68550;-26.480;29.234;2024-01-15T07:35:44;16;16;
79141;PMS5003;68550;-26.480;29.234;2024-01-15T07:38:09;22;22;
79141;PMS5003;68550;-26.480;29.234;2024-01-15T07:40:38;16;16;
79141;PMS5003;68550;-26.480;29.234;2024-01-15T07:42:59;19;18;
79141;PMS5003;68550;-26.480;29.234;2024-01-15T07:45:25;17;17;
79141;PMS5003;68550;-26.480;29.234;2024-01-15T07:47:50;18;18;
79141;PMS5003;68550;-26.480;29.234;2024-01-15T07:50:15;22;22;
79141;PMS5003;68550;-26.480;29.234;2024-01-15T07:52:44;18;17;
79141;PMS5003;68550;-26.480;29.234;2024-01-15T07:55:06;21;21;
79141;PMS5003;68550;-26.480;29.234;2024-01-15T07:57:31;16;16;
79141;PMS5003;68550;-26.480;29.234;2024-01-15T07:59:57;17;17;
79141;PMS5003;68550;-26.480;29.234;2024-01-15T08:02:22;18;18;
79141;PMS5003;68550;-26.480;29.234;2024-01-15T08:04:47;19;18;
79141;PMS5003;68550;-26.480;29.234;2024-01-15T08:07:14;15;15;
79141;PMS5003;68550;-26.480;29.234;2024-01-15T08:09:39;18;18;
79141;PMS5003;68550;-26.480;29.234;2024-01-15T08:12:03;14;14;
79141;PMS5003;68550;-26.480;29.234;2024-01-15T08:14:29;19;19;
79141;PMS5003;68550;-26.480;29.234;2024-01-15T08:16:54;17;17;
79141;PMS5003;68550;-26.480;29.234;2024-01-15T08:19:20;19;19;
79141;PMS5003;68550;-26.480;29.234;2024-01-15T08:21:45;18;18;
79141;PMS5003;68550;-26.480;29.234;2024-01-15T08:24:10;18;17;
79141;PMS5003;68550;-26.480;29.234;2024-01-15T08:26:35;20;20;
79141;PMS5003;68550;-26.480;29.234;2024-01-15T08:29:01;14;14;
79141;PMS5003;68550;-26.480;29.234;2024-01-15T08:31:28;18;18;
79141;PMS5003;68550;-26.480;29.234;2024-01-15T08:33:51;18;18;
79141;PMS5003;68550;-26.480;29.234;2024-01-15T08:36:16;18;18;
79141;PMS5003;68550;-26.480;29.234;2024-01-15T08:38:41;17;16;
79141;PMS5003;68550;-26.480;29.234;2024-01-15T08:41:07;21;19;
79141;PMS5003;68550;-26.480;29.234;2024-01-15T08:43:33;18;17;
79141;PMS5003;68550;-26.480;29.234;2024-01-15T08:45:57;17;17;
79141;PMS5003;68550;-26.480;29.234;2024-01-15T08:48:23;17;16;
79141;PMS5003;68550;-26.480;29.234;2024-01-15T08:50:48;16;16;
79141;PMS5003;68550;-26.480;29.234;2024-01-15T08:53:14;14;14;
79141;PMS5003;68550;-26.480;29.234;2024-01-15T08:55:39;17;17;
79141;PMS5003;68550;-26.480;29.234;2024-01-15T08:58:05;19;19;
79141;PMS5003;68550;-26.480;29.234;2024-01-15T09:00:29;18;18;
79141;PMS5003;68550;-26.480;29.234;2024-01-15T09:02:54;17;17;
79141;PMS5003;68550;-26.480;29.234;2024-01-15T09:05:20;19;18;
79141;PMS5003;68550;-26.480;29.234;2024-01-15T09:07:46;17;17;
79141;PMS5003;68550;-26.480;29.234;2024-01-15T09:10:11;17;16;
79141;PMS5003;68550;-26.480;29.234;2024-01-15T09:12:36;14;14;
79141;PMS5003;68550;-26.480;29.234;2024-01-15T09:15:01;17;17;
79141;PMS5003;68550;-26.480;29.234;2024-01-15T09:17:26;17;17;
79141;PMS5003;68550;-26.480;29.234;2024-01-15T09:19:51;19;19;
79141;PMS5003;68550;-26.480;29.234;2024-01-15T09:22:17;19;19;
79141;PMS5003;68550;-26.480;29.234;2024-01-15T09:24:43;15;15;
79141;PMS5003;68550;-26.480;29.234;2024-01-15T09:27:07;20;20;
79141;PMS5003;68550;-26.480;29.234;2024-01-15T09:29:32;15;15;
79141;PMS5003;68550;-26.480;29.234;2024-01-15T09:31:58;17;17;
79141;PMS5003;68550;-26.480;29.234;2024-01-15T09:34:24;19;19;
79141;PMS5003;68550;-26.480;29.234;2024-01-15T09:36:48;15;15;
79141;PMS5003;68550;-26.480;29.234;2024-01-15T09:39:13;19;18;
79141;PMS5003;68550;-26.480;29.234;2024-01-15T09:41:39;16;16;
79141;PMS5003;68550;-26.480;29.234;2024-01-15T09:44:04;18;18;
79141;PMS5003;68550;-26.480;29.234;2024-01-15T09:46:31;16;16;
79141;PMS5003;68550;-26.480;29.234;2024-01-15T09:48:55;15;15;
79141;PMS5003;68550;-26.480;29.234;2024-01-15T09:51:20;17;17;
79141;PMS5003;68550;-26.480;29.234;2024-01-15T09:53:45;18;18;
79141;PMS5003;68550;-26.480;29.234;2024-01-15T09:56:10;16;16;
79141;PMS5003;68550;-26.480;29.234;2024-01-15T09:58:38;16;15;
79141;PMS5003;68550;-26.480;29.234;2024-01-15T10:01:01;16;16;
79141;PMS5003;68550;-26.480;29.234;2024-01-15T10:03:27;16;16;
79141;PMS5003;68550;-26.480;29.234;2024-01-15T10:05:52;17;17;
79141;PMS5003;68550;-26.480;29.234;2024-01-15T10:08:17;18;18;
79141;PMS5003;68550;-26.480;29.234;2024-01-15T10:10:43;17;17;
79141;PMS5003;68550;-26.480;29.234;2024-01-15T10:13:08;15;15;
79141;PMS5003;68550;-26.480;29.234;2024-01-15T10:15:34;15;15;
79141;PMS5003;68550;-26.480;29.234;2024-01-15T10:17:59;14;14;
79141;PMS5003;68550;-26.480;29.234;2024-01-15T10:20:24;16;16;
79141;PMS5003;68550;-26.480;29.234;2024-01-15T10:22:49;17;17;
79141;PMS5003;68550;-26.480;29.234;2024-01-15T10:25:16;16;16;
79141;PMS5003;68550;-26.480;29.234;2024-01-15T10:27:39;14;14;
79141;PMS5003;68550;-26.480;29.234;2024-01-15T10:30:06;16;16;
79141;PMS5003;68550;-26.480;29.234;2024-01-15T10:32:30;17;17;
79141;PMS5003;68550;-26.480;29.234;2024-01-15T10:34:55;16;16;
79141;PMS5003;68550;-26.480;29.234;2024-01-15T10:37:21;15;15;
79141;PMS5003;68550;-26.480;29.234;2024-01-15T10:39:46;17;17;
79141;PMS5003;68550;-26.480;29.234;2024-01-15T10:42:12;15;15;
79141;PMS5003;68550;-26.480;29.234;2024-01-15T10:44:37;18;17;
79141;PMS5003;68550;-26.480;29.234;2024-01-15T10:47:02;15;15;
79141;PMS5003;68550;-26.480;29.234;2024-01-15T10:49:28;16;16;
79141;PMS5003;68550;-26.480;29.234;2024-01-15T10:51:53;16;16;
79141;PMS5003;68550;-26.480;29.234;2024-01-15T10:54:18;17;17;
79141;PMS5003;68550;-26.480;29.234;2024-01-15T10:56:48;15;15;
79141;PMS5003;68550;-26.480;29.234;2024-01-15T10:59:08;17;17;
79141;PMS5003;68550;-26.480;29.234;2024-01-15T11:03:45;5;5;
79141;PMS5003;68550;-26.480;29.234;2024-01-15T11:11:01;16;16;
79141;PMS5003;68550;-26.480;29.234;2024-01-15T11:15:57;18;18;
79141;PMS5003;68550;-26.480;29.234;2024-01-15T11:18:17;14;14;
79141;PMS5003;68550;-26.480;29.234;2024-01-15T11:23:07;14;14;
79141;PMS5003;68550;-26.480;29.234;2024-01-15T11:25:34;17;17;
79141;PMS5003;68550;-26.480;29.234;2024-01-15T11:27:58;17;17;
79141;PMS5003;68550;-26.480;29.234;2024-01-15T11:35:14;17;16;
79141;PMS5003;68550;-26.480;29.234;2024-01-15T11:40:05;14;14;
79141;PMS5003;68550;-26.480;29.234;2024-01-15T11:42:43;15;15;
79141;PMS5003;68550;-26.480;29.234;2024-01-15T11:47:38;15;15;
79141;PMS5003;68550;-26.480;29.234;2024-01-15T11:57:03;15;15;
79141;PMS5003;68550;-26.480;29.234;2024-01-15T12:04:20;16;15;
79141;PMS5003;68550;-26.480;29.234;2024-01-15T12:09:11;16;16;
79141;PMS5003;68550;-26.480;29.234;2024-01-15T12:11:34;14;13;
79141;PMS5003;68550;-26.480;29.234;2024-01-15T12:14:00;15;15;
79141;PMS5003;68550;-26.480;29.234;2024-01-15T12:16:25;16;15;
79141;PMS5003;68550;-26.480;29.234;2024-01-15T12:18:50;18;17;
79141;PMS5003;68550;-26.480;29.234;2024-01-15T12:23:41;14;14;
79141;PMS5003;68550;-26.480;29.234;2024-01-15T12:26:06;17;17;
79141;PMS5003;68550;-26.480;29.234;2024-01-15T12:33:22;16;16;
79141;PMS5003;68550;-26.480;29.234;2024-01-15T12:35:48;15;15;
79141;PMS5003;68550;-26.480;29.234;2024-01-15T12:38:16;15;14;
79141;PMS5003;68550;-26.480;29.234;2024-01-15T12:40:39;17;17;
79141;PMS5003;68550;-26.480;29.234;2024-01-15T12:43:03;15;15;
79141;PMS5003;68550;-26.480;29.234;2024-01-15T12:45:29;14;13;
79141;PMS5003;68550;-26.480;29.234;2024-01-15T12:48:04;14;14;
79141;PMS5003;68550;-26.480;29.234;2024-01-15T12:50:23;15;15;
79141;PMS5003;68550;-26.480;29.234;2024-01-15T12:52:44;15;14;
79141;PMS5003;68550;-26.480;29.234;2024-01-15T12:55:10;13;13;
79141;PMS5003;68550;-26.480;29.234;2024-01-15T13:00:00;14;14;
79141;PMS5003;68550;-26.480;29.234;2024-01-15T13:02:37;12;12;
79141;PMS5003;68550;-26.480;29.234;2024-01-15T13:05:03;16;16;
79141;PMS5003;68550;-26.480;29.234;2024-01-15T13:07:27;18;17;
79141;PMS5003;68550;-26.480;29.234;2024-01-15T13:09:53;15;15;
79141;PMS5003;68550;-26.480;29.234;2024-01-15T13:12:18;16;16;
79141;PMS5003;68550;-26.480;29.234;2024-01-15T13:14:43;16;16;
79141;PMS5003;68550;-26.480;29.234;2024-01-15T13:17:09;14;14;
79141;PMS5003;68550;-26.480;29.234;2024-01-15T13:19:34;19;19;
79141;PMS5003;68550;-26.480;29.234;2024-01-15T13:22:00;15;15;
79141;PMS5003;68550;-26.480;29.234;2024-01-15T13:24:25;16;16;
79141;PMS5003;68550;-26.480;29.234;2024-01-15T13:26:52;15;14;
79141;PMS5003;68550;-26.480;29.234;2024-01-15T13:29:15;17;17;
79141;PMS5003;68550;-26.480;29.234;2024-01-15T13:31:41;16;16;
79141;PMS5003;68550;-26.480;29.234;2024-01-15T13:34:06;16;16;
79141;PMS5003;68550;-26.480;29.234;2024-01-15T13:36:32;19;19;
79141;PMS5003;68550;-26.480;29.234;2024-01-15T13:38:59;14;14;
79141;PMS5003;68550;-26.480;29.234;2024-01-15T13:41:22;18;18;
79141;PMS5003;68550;-26.480;29.234;2024-01-15T13:43:49;14;14;
79141;PMS5003;68550;-26.480;29.234;2024-01-15T13:46:12;16;16;
79141;PMS5003;68550;-26.480;29.234;2024-01-15T13:48:37;14;14;
79141;PMS5003;68550;-26.480;29.234;2024-01-15T13:51:02;16;16;
79141;PMS5003;68550;-26.480;29.234;2024-01-15T13:53:27;16;16;
79141;PMS5003;68550;-26.480;29.234;2024-01-15T13:55:53;17;17;
79141;PMS5003;68550;-26.480;29.234;2024-01-15T13:58:18;19;19;
79141;PMS5003;68550;-26.480;29.234;2024-01-15T14:00:43;14;14;
79141;PMS5003;68550;-26.480;29.234;2024-01-15T14:03:08;17;16;
79141;PMS5003;68550;-26.480;29.234;2024-01-15T14:05:37;17;17;
79141;PMS5003;68550;-26.480;29.234;2024-01-15T14:07:58;14;14;
79141;PMS5003;68550;-26.480;29.234;2024-01-15T14:10:24;14;14;
79141;PMS5003;68550;-26.480;29.234;2024-01-15T14:12:49;17;16;
79141;PMS5003;68550;-26.480;29.234;2024-01-15T14:15:14;15;15;
79141;PMS5003;68550;-26.480;29.234;2024-01-15T14:17:42;15;14;
79141;PMS5003;68550;-26.480;29.234;2024-01-15T14:20:06;13;13;
79141;PMS5003;68550;-26.480;29.234;2024-01-15T14:22:30;17;16;
79141;PMS5003;68550;-26.480;29.234;2024-01-15T14:24:56;15;15;
79141;PMS5003;68550;-26.480;29.234;2024-01-15T14:27:21;17;17;
79141;PMS5003;68550;-26.480;29.234;2024-01-15T14:29:46;15;15;
79141;PMS5003;68550;-26.480;29.234;2024-01-15T14:32:11;15;15;
79141;PMS5003;68550;-26.480;29.234;2024-01-15T14:34:36;15;15;
79141;PMS5003;68550;-26.480;29.234;2024-01-15T14:37:01;14;14;
79141;PMS5003;68550;-26.480;29.234;2024-01-15T14:39:27;14;14;
79141;PMS5003;68550;-26.480;29.234;2024-01-15T14:41:54;14;14;
79141;PMS5003;68550;-26.480;29.234;2024-01-15T14:44:17;17;17;
79141;PMS5003;68550;-26.480;29.234;2024-01-15T14:46:43;14;14;
79141;PMS5003;68550;-26.480;29.234;2024-01-15T14:49:08;16;16;
79141;PMS5003;68550;-26.480;29.234;2024-01-15T14:51:34;15;15;
79141;PMS5003;68550;-26.480;29.234;2024-01-15T14:53:59;13;13;
79141;PMS5003;68550;-26.480;29.234;2024-01-15T14:56:26;14;14;
79141;PMS5003;68550;-26.480;29.234;2024-01-15T14:58:49;15;15;
79141;PMS5003;68550;-26.480;29.234;2024-01-15T15:01:14;17;16;
79141;PMS5003;68550;-26.480;29.234;2024-01-15T15:03:40;15;15;
79141;PMS5003;68550;-26.480;29.234;2024-01-15T15:06:05;16;15;
79141;PMS5003;68550;-26.480;29.234;2024-01-15T15:08:30;14;14;
79141;PMS5003;68550;-26.480;29.234;2024-01-15T15:10:56;14;14;
79141;PMS5003;68550;-26.480;29.234;2024-01-15T15:13:21;15;15;
79141;PMS5003;68550;-26.480;29.234;2024-01-15T15:15:47;14;14;
79141;PMS5003;68550;-26.480;29.234;2024-01-15T15:18:12;15;15;
79141;PMS5003;68550;-26.480;29.234;2024-01-15T15:20:37;14;14;
79141;PMS5003;68550;-26.480;29.234;2024-01-15T15:23:03;15;15;
79141;PMS5003;68550;-26.480;29.234;2024-01-15T15:25:28;15;15;
79141;PMS5003;68550;-26.480;29.234;2024-01-15T15:27:53;15;15;
79141;PMS5003;68550;-26.480;29.234;2024-01-15T15:30:18;16;16;
79141;PMS5003;68550;-26.480;29.234;2024-01-15T15:32:43;13;13;
79141;PMS5003;68550;-26.480;29.234;2024-01-15T15:35:09;14;14;
79141;PMS5003;68550;-26.480;29.234;2024-01-15T15:37:34;15;15;
79141;PMS5003;68550;-26.480;29.234;2024-01-15T15:39:59;15;15;
79141;PMS5003;68550;-26.480;29.234;2024-01-15T15:42:25;16;16;
79141;PMS5003;68550;-26.480;29.234;2024-01-15T15:44:50;17;17;
79141;PMS5003;68550;-26.480;29.234;2024-01-15T15:47:15;16;16;
79141;PMS5003;68550;-26.480;29.234;2024-01-15T15:49:40;14;14;
79141;PMS5003;68550;-26.480;29.234;2024-01-15T15:52:06;14;14;
79141;PMS5003;68550;-26.480;29.234;2024-01-15T15:54:31;17;17;
79141;PMS5003;68550;-26.480;29.234;2024-01-15T15:56:56;17;17;
79141;PMS5003;68550;-26.480;29.234;2024-01-15T15:59:22;13;12;
79141;PMS5003;68550;-26.480;29.234;2024-01-15T16:01:49;15;15;
79141;PMS5003;68550;-26.480;29.234;2024-01-15T16:04:12;13;13;
79141;PMS5003;68550;-26.480;29.234;2024-01-15T16:06:37;16;16;
79141;PMS5003;68550;-26.480;29.234;2024-01-15T16:09:03;13;13;
79141;PMS5003;68550;-26.480;29.234;2024-01-15T16:11:28;14;14;
79141;PMS5003;68550;-26.480;29.234;2024-01-15T16:13:55;13;13;
79141;PMS5003;68550;-26.480;29.234;2024-01-15T16:16:18;17;17;
79141;PMS5003;68550;-26.480;29.234;2024-01-15T16:18:44;13;13;
79141;PMS5003;68550;-26.480;29.234;2024-01-15T16:21:09;14;14;
79141;PMS5003;68550;-26.480;29.234;2024-01-15T16:23:34;18;17;
79141;PMS5003;68550;-26.480;29.234;2024-01-15T16:26:00;16;15;
79141;PMS5003;68550;-26.480;29.234;2024-01-15T16:28:26;15;15;
79141;PMS5003;68550;-26.480;29.234;2024-01-15T16:30:51;16;15;
79141;PMS5003;68550;-26.480;29.234;2024-01-15T16:33:16;18;18;
79141;PMS5003;68550;-26.480;29.234;2024-01-15T16:35:42;12;12;
79141;PMS5003;68550;-26.480;29.234;2024-01-15T16:38:07;14;14;
79141;PMS5003;68550;-26.480;29.234;2024-01-15T16:40:34;16;16;
79141;PMS5003;68550;-26.480;29.234;2024-01-15T16:42:57;14;14;
79141;PMS5003;68550;-26.480;29.234;2024-01-15T16:45:22;17;16;
79141;PMS5003;68550;-26.480;29.234;2024-01-15T16:47:48;16;16;
79141;PMS5003;68550;-26.480;29.234;2024-01-15T16:50:13;14;14;
79141;PMS5003;68550;-26.480;29.234;2024-01-15T16:52:38;13;13;
79141;PMS5003;68550;-26.480;29.234;2024-01-15T16:55:06;15;15;